createdAt,value
2023-05-02T00:01:21.321Z,4.50
2023-05-02T00:03:48.524Z,4.50
2023-05-02T00:06:15.789Z,4.60
2023-05-02T00:08:42.822Z,4.60
2023-05-02T00:11:09.810Z,4.70
2023-05-02T00:13:36.779Z,4.80
2023-05-02T00:16:03.890Z,4.90
2023-05-02T00:18:30.787Z,4.90
2023-05-02T00:20:57.768Z,5.00
2023-05-02T00:23:24.749Z,5.10
2023-05-02T00:25:51.708Z,5.10
2023-05-02T00:28:18.783Z,5.10
2023-05-02T00:30:46.314Z,5.10
2023-05-02T00:33:15.064Z,5.10
2023-05-02T00:35:42.263Z,5.10
2023-05-02T00:38:09.717Z,5.10
2023-05-02T00:40:52.310Z,5.20
2023-05-02T00:43:19.741Z,5.10
2023-05-02T00:45:47.416Z,5.10
2023-05-02T00:48:14.930Z,5.20
2023-05-02T00:50:43.325Z,5.40
2023-05-02T00:53:11.337Z,5.50
2023-05-02T00:55:38.632Z,5.70
2023-05-02T00:58:11.046Z,5.90
2023-05-02T01:01:02.883Z,6.00
2023-05-02T01:03:29.875Z,6.10
2023-05-02T01:06:24.544Z,6.10
2023-05-02T01:09:02.054Z,6.10
2023-05-02T01:11:35.772Z,6.10
2023-05-02T01:14:07.367Z,6.00
2023-05-02T01:16:37.300Z,6.10
2023-05-02T01:19:08.952Z,6.10
2023-05-02T01:21:37.632Z,6.20
2023-05-02T01:24:14.653Z,6.20
2023-05-02T01:27:07.529Z,6.20
2023-05-02T01:29:37.445Z,6.20
2023-05-02T01:32:06.671Z,6.20
2023-05-02T01:34:36.333Z,6.20
2023-05-02T01:37:06.192Z,6.00
2023-05-02T01:39:35.763Z,6.00
2023-05-02T01:42:05.086Z,5.90
2023-05-02T01:44:36.058Z,5.90
2023-05-02T01:47:05.478Z,5.90
2023-05-02T01:49:35.275Z,5.90
2023-05-02T01:52:08.507Z,5.90
2023-05-02T01:54:36.782Z,5.90
2023-05-02T01:57:08.476Z,5.90
2023-05-02T01:59:37.078Z,5.80
2023-05-02T02:02:06.668Z,5.80
2023-05-02T02:04:36.124Z,5.80
2023-05-02T02:07:08.230Z,5.80
2023-05-02T02:09:35.964Z,5.80
2023-05-02T02:12:07.576Z,5.80
2023-05-02T02:14:38.186Z,5.90
2023-05-02T02:17:22.654Z,5.90
2023-05-02T02:19:56.243Z,5.90
2023-05-02T02:22:26.761Z,5.90
2023-05-02T02:24:54.691Z,6.00
2023-05-02T02:27:21.801Z,6.10
2023-05-02T02:29:48.928Z,6.20
2023-05-02T02:32:16.158Z,6.30
2023-05-02T02:34:43.278Z,6.40
2023-05-02T02:37:20.223Z,6.40
2023-05-02T02:40:06.028Z,6.50
2023-05-02T02:43:14.482Z,6.60
2023-05-02T02:45:56.243Z,6.70
2023-05-02T02:48:47.219Z,6.70
2023-05-02T02:51:46.024Z,6.90
2023-05-02T02:54:32.072Z,7.00
2023-05-02T02:57:04.637Z,7.10
2023-05-02T02:59:38.767Z,7.20
2023-05-02T03:02:11.347Z,7.30
2023-05-02T03:04:47.049Z,7.30
2023-05-02T03:07:14.047Z,7.30
2023-05-02T03:09:45.405Z,7.40
2023-05-02T03:12:13.088Z,7.40
2023-05-02T03:14:41.225Z,7.50
2023-05-02T03:17:10.856Z,7.60
2023-05-02T03:19:37.827Z,7.80
2023-05-02T03:22:05.607Z,8.10
2023-05-02T03:24:32.630Z,8.30
2023-05-02T03:26:59.970Z,8.30
2023-05-02T03:29:28.792Z,8.30
2023-05-02T03:31:55.854Z,8.40
2023-05-02T03:34:22.922Z,8.70
2023-05-02T03:36:50.146Z,9.30
2023-05-02T03:39:17.140Z,9.80
2023-05-02T03:41:44.328Z,10.30
2023-05-02T03:44:11.568Z,10.70
2023-05-02T03:46:38.642Z,11.00
2023-05-02T03:49:05.701Z,11.30
2023-05-02T03:51:34.002Z,11.60
2023-05-02T03:54:02.957Z,11.70
2023-05-02T03:56:29.872Z,11.70
2023-05-02T03:58:56.880Z,11.70
2023-05-02T04:01:23.891Z,11.60
2023-05-02T04:03:52.206Z,11.60
2023-05-02T04:06:19.226Z,11.60
2023-05-02T04:08:46.212Z,11.70
2023-05-02T04:11:13.171Z,11.80
2023-05-02T04:13:40.174Z,12.10
2023-05-02T04:16:07.272Z,12.40
2023-05-02T04:18:34.352Z,12.80
2023-05-02T04:21:01.323Z,13.30
2023-05-02T04:23:28.333Z,13.70
2023-05-02T04:25:56.388Z,13.90
2023-05-02T04:28:24.092Z,14.00
2023-05-02T04:30:51.607Z,14.00
2023-05-02T04:33:27.717Z,14.10
2023-05-02T04:35:54.656Z,14.20
2023-05-02T04:38:21.657Z,14.20
2023-05-02T04:40:52.356Z,14.20
2023-05-02T04:43:19.345Z,14.30
2023-05-02T04:45:46.455Z,14.40
2023-05-02T04:48:13.504Z,14.50
2023-05-02T04:50:40.488Z,14.50
2023-05-02T04:53:07.380Z,14.50
2023-05-02T04:55:34.312Z,14.30
2023-05-02T04:58:01.261Z,14.00
2023-05-02T05:00:28.866Z,13.60
2023-05-02T05:02:55.832Z,13.40
2023-05-02T05:05:22.944Z,13.20
2023-05-02T05:07:49.925Z,13.20
2023-05-02T05:10:16.963Z,13.10
2023-05-02T05:12:43.950Z,13.20
2023-05-02T05:15:12.017Z,13.20
2023-05-02T05:17:39.249Z,13.50
2023-05-02T05:20:08.331Z,14.00
2023-05-02T05:22:42.780Z,14.20
2023-05-02T05:25:10.453Z,14.10
2023-05-02T05:27:38.097Z,14.10
2023-05-02T05:30:07.162Z,14.00
2023-05-02T05:32:34.470Z,14.00
2023-05-02T05:35:01.760Z,14.20
2023-05-02T05:37:28.674Z,14.80
2023-05-02T05:39:56.297Z,15.40
2023-05-02T05:42:23.321Z,15.70
2023-05-02T05:44:50.384Z,15.80
2023-05-02T05:47:22.323Z,15.80
2023-05-02T05:49:56.751Z,16.00
2023-05-02T05:52:23.731Z,16.00
2023-05-02T05:54:55.655Z,16.30
2023-05-02T05:57:23.136Z,16.70
2023-05-02T05:59:51.119Z,17.00
2023-05-02T06:02:19.930Z,17.30
2023-05-02T06:04:47.162Z,17.40
2023-05-02T06:07:14.094Z,17.50
2023-05-02T06:09:41.436Z,17.70
2023-05-02T06:12:08.585Z,17.80
2023-05-02T06:14:35.547Z,17.80
2023-05-02T06:17:02.516Z,17.70
2023-05-02T06:19:29.489Z,17.70
2023-05-02T06:21:56.387Z,17.60
2023-05-02T06:24:23.330Z,17.50
2023-05-02T06:26:51.789Z,17.20
2023-05-02T06:29:18.759Z,17.20
2023-05-02T06:31:46.267Z,17.40
2023-05-02T06:34:13.232Z,17.40
2023-05-02T06:36:40.230Z,17.40
2023-05-02T06:39:07.136Z,17.50
2023-05-02T06:41:34.056Z,17.50
2023-05-02T06:44:01.134Z,17.50
2023-05-02T06:46:31.794Z,17.30
2023-05-02T06:48:58.900Z,17.10
2023-05-02T06:51:26.349Z,17.20
2023-05-02T06:53:53.281Z,17.50
2023-05-02T06:56:20.251Z,17.70
2023-05-02T06:58:47.204Z,17.70
2023-05-02T07:01:14.152Z,17.50
2023-05-02T07:03:47.746Z,17.40
2023-05-02T07:06:14.771Z,17.10
2023-05-02T07:08:41.727Z,16.80
2023-05-02T07:11:08.656Z,16.40
2023-05-02T07:13:35.716Z,16.10
2023-05-02T07:16:02.854Z,16.00
2023-05-02T07:18:29.829Z,16.00
2023-05-02T07:20:57.953Z,16.00
2023-05-02T07:23:25.385Z,16.10
2023-05-02T07:25:52.479Z,16.50
2023-05-02T07:28:19.448Z,17.20
2023-05-02T07:30:46.478Z,17.60
2023-05-02T07:33:15.885Z,17.40
2023-05-02T07:35:43.155Z,17.20
2023-05-02T07:38:10.132Z,17.00
2023-05-02T07:40:37.398Z,17.10
2023-05-02T07:43:04.417Z,17.20
2023-05-02T07:45:31.400Z,17.40
2023-05-02T07:47:58.331Z,17.60
2023-05-02T07:50:26.041Z,17.90
2023-05-02T07:52:53.269Z,18.30
2023-05-02T07:55:21.613Z,18.70
2023-05-02T07:57:48.632Z,18.80
2023-05-02T08:00:16.368Z,18.80
2023-05-02T08:02:43.484Z,18.60
2023-05-02T08:05:10.706Z,18.80
2023-05-02T08:07:37.691Z,19.00
2023-05-02T08:10:06.973Z,18.90
2023-05-02T08:12:39.158Z,18.70
2023-05-02T08:15:08.558Z,18.60
2023-05-02T08:17:36.279Z,18.40
2023-05-02T08:20:03.508Z,18.30
2023-05-02T08:22:30.608Z,18.40
2023-05-02T08:24:57.572Z,18.40
2023-05-02T08:27:24.473Z,18.60
2023-05-02T08:29:51.405Z,18.50
2023-05-02T08:32:18.386Z,18.40
2023-05-02T08:34:45.415Z,18.40
2023-05-02T08:37:13.350Z,18.40
2023-05-02T08:39:40.385Z,18.40
2023-05-02T08:42:08.366Z,18.40
2023-05-02T08:44:35.502Z,18.40
2023-05-02T08:47:03.634Z,18.30
2023-05-02T08:49:33.022Z,18.40
2023-05-02T08:52:00.652Z,18.50
2023-05-02T08:54:28.091Z,18.70
2023-05-02T08:56:55.177Z,19.00
2023-05-02T08:59:22.221Z,19.10
2023-05-02T09:01:55.294Z,19.20
2023-05-02T09:04:33.298Z,19.10
2023-05-02T09:07:00.294Z,19.00
2023-05-02T09:09:27.474Z,18.80
2023-05-02T09:11:54.467Z,18.80
2023-05-02T09:14:21.453Z,18.80
2023-05-02T09:16:48.667Z,18.60
2023-05-02T09:19:28.502Z,18.40
2023-05-02T09:22:04.304Z,18.30
2023-05-02T09:24:31.555Z,18.20
2023-05-02T09:27:05.535Z,18.20
2023-05-02T09:29:38.971Z,18.20
2023-05-02T09:32:06.965Z,18.30
2023-05-02T09:34:34.609Z,18.40
2023-05-02T09:37:04.111Z,18.50
2023-05-02T09:39:31.593Z,18.50
2023-05-02T09:41:59.510Z,18.30
2023-05-02T09:44:36.172Z,18.10
2023-05-02T09:47:03.285Z,18.00
2023-05-02T09:49:47.109Z,17.80
2023-05-02T09:52:16.059Z,17.90
2023-05-02T09:54:43.334Z,18.20
2023-05-02T09:57:11.343Z,18.60
2023-05-02T09:59:39.996Z,18.80
2023-05-02T10:02:09.723Z,19.10
2023-05-02T10:04:37.920Z,19.40
2023-05-02T10:07:06.753Z,19.50
2023-05-02T10:09:38.125Z,19.50
2023-05-02T10:12:06.732Z,19.40
2023-05-02T10:14:44.112Z,19.20
2023-05-02T10:17:43.577Z,19.10
2023-05-02T10:20:16.546Z,19.00
2023-05-02T10:22:46.130Z,18.80
2023-05-02T10:25:15.741Z,18.70
2023-05-02T10:30:33.838Z,18.80
2023-05-02T10:33:02.598Z,19.00
2023-05-02T10:35:32.090Z,19.20
2023-05-02T10:38:00.227Z,19.40
2023-05-02T10:40:27.596Z,19.40
2023-05-02T10:42:54.820Z,19.30
2023-05-02T10:45:39.530Z,19.30
2023-05-02T10:48:17.799Z,19.20
2023-05-02T10:50:53.317Z,19.10
2023-05-02T10:53:37.048Z,19.00
2023-05-02T10:56:09.988Z,19.00
2023-05-02T10:58:37.517Z,18.90
2023-05-02T11:01:29.583Z,18.80
2023-05-02T11:04:02.343Z,18.90
2023-05-02T11:06:37.525Z,19.00
2023-05-02T11:09:14.739Z,18.90
2023-05-02T11:11:49.741Z,18.90
2023-05-02T11:14:26.039Z,18.80
2023-05-02T11:17:01.496Z,18.50
2023-05-02T11:19:31.412Z,18.20
2023-05-02T11:22:23.995Z,18.10
2023-05-02T11:24:51.660Z,17.90
2023-05-02T11:27:31.026Z,17.80
2023-05-02T11:29:59.522Z,17.70
2023-05-02T11:32:47.465Z,17.70
2023-05-02T11:35:18.715Z,17.70
2023-05-02T11:37:59.184Z,17.70
2023-05-02T11:40:27.638Z,17.60
2023-05-02T11:42:55.520Z,17.50
2023-05-02T11:45:24.096Z,17.30
2023-05-02T11:47:51.745Z,17.20
2023-05-02T11:50:19.125Z,17.10
2023-05-02T11:52:46.477Z,16.90
2023-05-02T11:55:15.097Z,16.80
2023-05-02T11:57:43.049Z,16.60
2023-05-02T12:00:13.832Z,16.50
2023-05-02T12:02:43.037Z,16.30
2023-05-02T12:05:12.504Z,16.20
2023-05-02T12:07:40.295Z,16.10
2023-05-02T12:10:08.466Z,16.00
2023-05-02T12:12:36.327Z,15.90
2023-05-02T12:15:07.957Z,15.90
2023-05-02T12:17:38.437Z,16.00
2023-05-02T12:20:06.905Z,16.10
2023-05-02T12:22:36.896Z,16.20
2023-05-02T12:25:05.826Z,16.40
2023-05-02T12:27:36.145Z,16.60
2023-05-02T12:30:03.781Z,16.70
2023-05-02T12:32:36.035Z,16.60
2023-05-02T12:35:04.050Z,16.50
2023-05-02T12:37:31.185Z,16.20
2023-05-02T12:39:58.203Z,16.00
2023-05-02T12:42:26.106Z,15.90
2023-05-02T12:44:53.745Z,15.70
2023-05-02T12:47:25.133Z,15.70
2023-05-02T12:49:54.124Z,15.70
2023-05-02T12:52:42.410Z,15.70
2023-05-02T12:55:19.484Z,15.70
2023-05-02T12:57:46.961Z,15.00
2023-05-02T13:00:16.681Z,14.00
2023-05-02T13:02:43.691Z,13.10
2023-05-02T13:05:17.451Z,12.50
2023-05-02T13:07:44.719Z,12.00
2023-05-02T13:10:13.457Z,11.40
2023-05-02T13:12:40.391Z,10.80
2023-05-02T13:15:08.949Z,10.30
2023-05-02T13:17:36.164Z,10.00
2023-05-02T13:20:03.831Z,9.90
2023-05-02T13:22:31.146Z,9.80
2023-05-02T13:24:58.182Z,9.60
2023-05-02T13:27:25.589Z,9.50
2023-05-02T13:29:52.609Z,9.40
2023-05-02T13:32:19.840Z,9.30
2023-05-02T13:34:46.894Z,9.20
2023-05-02T13:37:14.046Z,9.20
2023-05-02T13:39:40.976Z,9.20
2023-05-02T13:42:08.116Z,9.20
2023-05-02T13:44:35.125Z,9.10
2023-05-02T13:47:02.234Z,9.10
2023-05-02T13:49:29.173Z,9.00
2023-05-02T13:51:56.405Z,9.00
2023-05-02T13:54:23.402Z,8.90
2023-05-02T13:56:50.561Z,8.80
2023-05-02T13:59:17.469Z,8.70
2023-05-02T14:01:44.610Z,8.70
2023-05-02T14:04:11.963Z,8.60
2023-05-02T14:06:39.194Z,8.60
2023-05-02T14:09:07.370Z,8.50
2023-05-02T14:11:34.413Z,8.50
2023-05-02T14:14:01.595Z,8.50
2023-05-02T14:16:28.833Z,8.40
2023-05-02T14:18:55.965Z,8.40
2023-05-02T14:21:22.928Z,8.30
2023-05-02T14:23:49.909Z,8.20
2023-05-02T14:26:17.087Z,8.20
2023-05-02T14:28:47.299Z,8.20
2023-05-02T14:31:14.396Z,8.20
2023-05-02T14:33:41.409Z,8.10
2023-05-02T14:36:10.533Z,8.10
2023-05-02T14:38:38.719Z,8.10
2023-05-02T14:41:06.998Z,8.10
2023-05-02T14:43:33.903Z,8.00
2023-05-02T14:46:00.860Z,8.10
2023-05-02T14:48:27.823Z,8.00
2023-05-02T14:50:54.768Z,8.00
2023-05-02T14:53:21.848Z,8.00
2023-05-02T14:55:48.794Z,8.00
2023-05-02T14:58:20.671Z,8.00
2023-05-02T15:00:48.281Z,7.90
2023-05-02T15:03:15.338Z,7.90
2023-05-02T15:05:42.415Z,7.90
2023-05-02T15:08:09.374Z,7.90
2023-05-02T15:10:39.914Z,7.90
2023-05-02T15:13:07.754Z,7.90
2023-05-02T15:15:35.041Z,8.00
2023-05-02T15:18:02.138Z,8.00
2023-05-02T15:20:29.223Z,8.10
2023-05-02T15:22:56.402Z,8.10
2023-05-02T15:25:23.352Z,8.40
2023-05-02T15:28:13.728Z,8.50
2023-05-02T15:30:40.696Z,8.60
2023-05-02T15:33:10.859Z,8.50
2023-05-02T15:35:37.840Z,8.40
2023-05-02T15:38:04.918Z,8.30
2023-05-02T15:40:34.817Z,8.30
2023-05-02T15:43:01.985Z,8.20
2023-05-02T15:45:31.731Z,8.10
2023-05-02T15:47:58.767Z,8.00
2023-05-02T15:50:25.796Z,7.90
2023-05-02T15:52:52.905Z,7.90
2023-05-02T15:55:20.001Z,7.90
2023-05-02T15:57:47.301Z,7.80
2023-05-02T16:00:17.050Z,7.80
2023-05-02T16:02:44.168Z,7.70
2023-05-02T16:05:11.162Z,7.60
2023-05-02T16:07:38.797Z,7.50
2023-05-02T16:10:06.380Z,7.50
2023-05-02T16:12:33.525Z,7.40
2023-05-02T16:15:01.842Z,7.30
2023-05-02T16:17:30.137Z,7.20
2023-05-02T16:19:58.312Z,7.00
2023-05-02T16:22:27.931Z,6.80
2023-05-02T16:24:56.135Z,6.60
2023-05-02T16:27:23.778Z,6.50
2023-05-02T16:29:51.158Z,6.50
2023-05-02T16:32:18.156Z,6.50
2023-05-02T16:34:45.150Z,6.50
2023-05-02T16:37:12.315Z,6.50
2023-05-02T16:39:40.058Z,6.50
2023-05-02T16:42:07.541Z,6.50
2023-05-02T16:44:34.596Z,6.50
2023-05-02T16:47:01.734Z,6.50
2023-05-02T16:49:28.722Z,6.60
2023-05-02T16:51:56.140Z,6.60
2023-05-02T16:54:23.154Z,6.50
2023-05-02T16:56:50.431Z,6.50
2023-05-02T16:59:17.371Z,6.60
2023-05-02T17:01:44.350Z,6.50
2023-05-02T17:04:11.393Z,6.50
2023-05-02T17:06:38.391Z,6.40
2023-05-02T17:09:06.344Z,6.30
2023-05-02T17:11:33.287Z,6.30
2023-05-02T17:14:00.280Z,6.30
2023-05-02T17:16:27.239Z,6.30
2023-05-02T17:18:54.232Z,6.20
2023-05-02T17:21:21.198Z,6.20
2023-05-02T17:23:48.349Z,6.20
2023-05-02T17:26:15.869Z,6.20
2023-05-02T17:28:46.480Z,6.30
2023-05-02T17:31:13.569Z,6.20
2023-05-02T17:33:42.300Z,6.20
2023-05-02T17:36:09.428Z,6.10
2023-05-02T17:38:36.449Z,6.20
2023-05-02T17:41:03.470Z,6.10
2023-05-02T17:43:30.390Z,6.10
2023-05-02T17:45:57.453Z,6.10
2023-05-02T17:48:24.474Z,6.00
2023-05-02T17:50:51.629Z,6.00
2023-05-02T17:53:18.601Z,5.90
2023-05-02T17:55:45.891Z,5.90
2023-05-02T17:58:12.809Z,5.90
2023-05-02T18:00:40.444Z,5.90
2023-05-02T18:03:08.314Z,5.80
2023-05-02T18:05:39.786Z,5.80
2023-05-02T18:08:07.631Z,5.80
2023-05-02T18:10:38.157Z,5.70
2023-05-02T18:13:05.966Z,5.60
2023-05-02T18:15:32.988Z,5.60
2023-05-02T18:17:59.948Z,5.50
2023-05-02T18:20:26.932Z,5.40
2023-05-02T18:22:59.159Z,5.30
2023-05-02T18:25:26.216Z,5.30
2023-05-02T18:27:53.135Z,5.20
2023-05-02T18:30:20.240Z,5.20
2023-05-02T18:32:47.329Z,5.10
2023-05-02T18:35:14.447Z,5.10
2023-05-02T18:37:41.464Z,5.00
2023-05-02T18:40:08.889Z,5.00
2023-05-02T18:42:36.113Z,4.90
2023-05-02T18:45:04.330Z,4.90
2023-05-02T18:47:31.659Z,4.90
2023-05-02T18:49:59.691Z,4.90
2023-05-02T18:52:26.849Z,4.80
2023-05-02T18:54:53.854Z,4.80
2023-05-02T18:57:21.684Z,4.80
2023-05-02T18:59:48.600Z,4.70
2023-05-02T19:02:16.288Z,4.70
2023-05-02T19:04:43.298Z,4.70
2023-05-02T19:07:10.275Z,4.60
2023-05-02T19:09:37.248Z,4.60
2023-05-02T19:12:04.377Z,4.50
2023-05-02T19:14:32.270Z,4.40
2023-05-02T19:16:59.969Z,4.30
2023-05-02T19:19:26.893Z,4.30
2023-05-02T19:21:53.857Z,4.20
2023-05-02T19:24:21.239Z,4.10
2023-05-02T19:26:48.193Z,4.10
2023-05-02T19:29:15.106Z,4.00
2023-05-02T19:31:43.874Z,4.00
2023-05-02T19:34:10.864Z,3.90
2023-05-02T19:36:37.782Z,3.90
2023-05-02T19:39:05.502Z,4.00
2023-05-02T19:41:32.589Z,3.90
2023-05-02T19:44:00.418Z,3.90
2023-05-02T19:46:27.453Z,3.90
2023-05-02T19:48:54.504Z,3.90
2023-05-02T19:51:25.573Z,3.80
2023-05-02T19:53:53.985Z,3.80
2023-05-02T19:56:25.529Z,3.70
2023-05-02T19:58:53.085Z,3.70
2023-05-02T20:01:20.517Z,3.60
2023-05-02T20:03:47.786Z,3.60
2023-05-02T20:06:15.145Z,3.50
2023-05-02T20:08:42.180Z,3.50
2023-05-02T20:11:09.134Z,3.40
2023-05-02T20:13:36.284Z,3.50
2023-05-02T20:16:03.343Z,3.50
2023-05-02T20:18:30.970Z,3.50
2023-05-02T20:20:58.024Z,3.50
2023-05-02T20:23:24.971Z,3.50
2023-05-02T20:25:51.871Z,3.60
2023-05-02T20:28:18.887Z,3.50
2023-05-02T20:30:45.867Z,3.50
2023-05-02T20:33:16.482Z,3.40
2023-05-02T20:35:44.230Z,3.30
2023-05-02T20:38:11.368Z,3.30
2023-05-02T20:40:40.821Z,3.10
2023-05-02T20:43:07.957Z,3.10
2023-05-02T20:45:35.004Z,3.10
2023-05-02T20:48:01.994Z,3.00
2023-05-02T20:50:29.217Z,2.90
2023-05-02T20:52:56.852Z,2.80
2023-05-02T20:55:24.960Z,2.70
2023-05-02T20:57:53.342Z,2.60
2023-05-02T21:00:24.294Z,2.60
2023-05-02T21:02:51.519Z,2.60
2023-05-02T21:05:18.583Z,2.60
2023-05-02T21:07:45.751Z,2.50
2023-05-02T21:10:12.769Z,2.50
2023-05-02T21:12:39.856Z,2.40
2023-05-02T21:15:07.883Z,2.40
2023-05-02T21:17:34.947Z,2.30
2023-05-02T21:20:02.175Z,2.30
2023-05-02T21:22:29.551Z,2.30
2023-05-02T21:24:59.082Z,2.20
2023-05-02T21:27:26.132Z,2.10
2023-05-02T21:29:53.103Z,2.10
2023-05-02T21:32:20.938Z,2.10
2023-05-02T21:34:48.286Z,2.00
2023-05-02T21:37:15.201Z,2.10
2023-05-02T21:39:42.101Z,2.10
2023-05-02T21:42:09.020Z,2.10
2023-05-02T21:44:36.138Z,2.00
2023-05-02T21:47:03.193Z,2.00
2023-05-02T21:49:31.311Z,1.90
2023-05-02T21:52:01.050Z,1.90
2023-05-02T21:54:28.095Z,1.90
2023-05-02T21:56:55.048Z,1.80
2023-05-02T21:59:21.973Z,1.70
2023-05-02T22:01:49.027Z,1.70
2023-05-02T22:04:16.451Z,1.70
2023-05-02T22:06:48.204Z,1.60
2023-05-02T22:09:15.241Z,1.60
2023-05-02T22:11:42.329Z,1.60
2023-05-02T22:14:10.703Z,1.50
2023-05-02T22:16:38.040Z,1.50
2023-05-02T22:19:05.350Z,1.40
2023-05-02T22:21:32.885Z,1.40
2023-05-02T22:23:59.948Z,1.30
2023-05-02T22:26:26.888Z,1.20
2023-05-02T22:28:53.841Z,1.20
2023-05-02T22:31:21.536Z,1.10
2023-05-02T22:33:50.093Z,1.10
2023-05-02T22:36:18.035Z,1.10
2023-05-02T22:38:45.050Z,1.00
2023-05-02T22:41:12.008Z,1.00
2023-05-02T22:43:38.953Z,1.00
2023-05-02T22:46:06.203Z,1.00
2023-05-02T22:48:33.154Z,0.90
2023-05-02T22:51:00.201Z,0.90
2023-05-02T22:53:27.131Z,0.80
2023-05-02T22:55:54.120Z,0.80
2023-05-02T22:58:21.050Z,0.70
2023-05-02T23:00:48.137Z,0.70
2023-05-02T23:03:15.163Z,0.70
2023-05-02T23:05:42.213Z,0.60
2023-05-02T23:08:09.098Z,0.60
2023-05-02T23:10:36.064Z,0.60
2023-05-02T23:13:03.044Z,0.50
2023-05-02T23:15:30.072Z,0.50
2023-05-02T23:17:57.125Z,0.50
2023-05-02T23:20:24.196Z,0.50
2023-05-02T23:22:51.452Z,0.50
2023-05-02T23:25:20.123Z,0.40
2023-05-02T23:27:47.108Z,0.40
2023-05-02T23:30:15.069Z,0.40
2023-05-02T23:32:42.235Z,0.40
2023-05-02T23:35:11.329Z,0.30
2023-05-02T23:37:39.987Z,0.30
2023-05-02T23:40:09.948Z,0.30
2023-05-02T23:42:40.396Z,0.30
2023-05-02T23:45:08.853Z,0.30
2023-05-02T23:47:36.502Z,0.30
2023-05-02T23:50:04.847Z,0.30
2023-05-02T23:52:31.966Z,0.40
2023-05-02T23:54:58.859Z,0.40
2023-05-02T23:57:25.842Z,0.50
2023-05-02T23:59:53.506Z,0.50
